createdAt,value
2022-09-11T00:04:01.501Z,13.99
2022-09-11T00:09:01.936Z,13.94
2022-09-11T00:13:54.361Z,13.86
2022-09-11T00:18:46.888Z,13.84
2022-09-11T00:23:38.566Z,13.79
2022-09-11T00:28:30.786Z,13.73
2022-09-11T00:33:22.901Z,13.67
2022-09-11T00:38:17.371Z,13.64
2022-09-11T00:43:10.432Z,13.58
2022-09-11T00:48:04.156Z,13.53
2022-09-11T00:53:03.434Z,13.50
2022-09-11T00:58:03.785Z,13.46
2022-09-11T01:02:57.130Z,13.44
2022-09-11T01:07:54.257Z,13.41
2022-09-11T01:12:45.774Z,13.37
2022-09-11T01:17:54.134Z,13.33
2022-09-11T01:23:15.983Z,13.30
2022-09-11T01:28:14.576Z,13.25
2022-09-11T01:33:17.875Z,13.22
2022-09-11T01:38:17.204Z,13.23
2022-09-11T01:43:27.065Z,13.19
2022-09-11T01:48:24.228Z,13.16
2022-09-11T01:53:20.792Z,13.14
2022-09-11T01:58:23.285Z,13.14
2022-09-11T02:03:38.287Z,13.12
2022-09-11T02:08:49.152Z,13.11
2022-09-11T02:13:50.059Z,13.08
2022-09-11T02:18:48.488Z,13.06
2022-09-11T02:23:40.261Z,13.01
2022-09-11T02:28:31.924Z,13.01
2022-09-11T02:33:32.414Z,13.00
2022-09-11T02:38:42.860Z,12.98
2022-09-11T02:43:45.569Z,12.95
2022-09-11T02:49:00.253Z,12.93
2022-09-11T02:53:57.801Z,12.93
2022-09-11T02:59:03.658Z,12.90
2022-09-11T03:03:55.595Z,12.88
2022-09-11T03:08:47.768Z,12.86
2022-09-11T03:13:39.832Z,12.85
2022-09-11T03:18:32.037Z,12.84
2022-09-11T03:23:23.663Z,12.84
2022-09-11T03:28:15.234Z,12.84
2022-09-11T03:33:07.412Z,12.81
2022-09-11T03:37:59.024Z,12.81
2022-09-11T03:42:50.596Z,12.81
2022-09-11T03:47:42.284Z,12.80
2022-09-11T03:52:34.751Z,12.78
2022-09-11T03:57:26.605Z,12.75
2022-09-11T04:02:25.785Z,12.74
2022-09-11T04:07:17.405Z,12.71
2022-09-11T04:12:09.088Z,12.72
2022-09-11T04:17:00.680Z,12.72
2022-09-11T04:21:52.255Z,12.74
2022-09-11T04:26:43.829Z,12.74
2022-09-11T04:31:36.623Z,12.72
2022-09-11T04:36:30.075Z,12.70
2022-09-11T04:41:22.223Z,12.65
2022-09-11T04:46:17.425Z,12.67
2022-09-11T04:51:09.125Z,12.66
2022-09-11T04:56:07.907Z,12.67
2022-09-11T05:00:59.624Z,12.66
2022-09-11T05:05:51.221Z,12.63
2022-09-11T05:10:42.773Z,12.61
2022-09-11T05:15:34.645Z,12.56
2022-09-11T05:20:26.185Z,12.55
2022-09-11T05:25:18.612Z,12.52
2022-09-11T05:30:11.144Z,12.53
2022-09-11T05:35:02.747Z,12.51
2022-09-11T05:39:54.582Z,12.51
2022-09-11T05:44:47.275Z,12.52
2022-09-11T05:49:38.818Z,12.56
2022-09-11T05:54:30.405Z,12.58
2022-09-11T05:59:21.996Z,12.60
2022-09-11T06:04:14.124Z,12.65
2022-09-11T06:09:06.908Z,12.70
2022-09-11T06:13:58.474Z,12.74
2022-09-11T06:18:51.530Z,12.80
2022-09-11T06:23:43.408Z,12.85
2022-09-11T06:28:37.847Z,12.87
2022-09-11T06:33:34.586Z,12.89
2022-09-11T06:38:26.908Z,12.93
2022-09-11T06:43:18.585Z,12.95
2022-09-11T06:48:10.369Z,12.96
2022-09-11T06:53:01.931Z,12.96
2022-09-11T06:57:53.848Z,12.97
2022-09-11T07:02:46.400Z,12.95
2022-09-11T07:07:39.470Z,12.94
2022-09-11T07:12:32.113Z,12.96
2022-09-11T07:17:23.743Z,12.92
2022-09-11T07:22:15.654Z,12.91
2022-09-11T07:27:07.281Z,12.86
2022-09-11T07:31:59.000Z,12.82
2022-09-11T07:36:51.889Z,12.85
2022-09-11T07:41:43.479Z,12.87
2022-09-11T07:46:35.836Z,12.92
2022-09-11T07:51:28.209Z,12.96
2022-09-11T07:56:23.959Z,13.02
2022-09-11T08:01:21.216Z,13.14
2022-09-11T08:06:22.101Z,13.23
2022-09-11T08:11:17.269Z,13.33
2022-09-11T08:16:09.431Z,13.48
2022-09-11T08:21:03.509Z,13.56
2022-09-11T08:25:57.304Z,13.63
2022-09-11T08:30:48.930Z,13.73
2022-09-11T08:35:40.518Z,13.88
2022-09-11T08:40:38.068Z,13.99
2022-09-11T08:45:35.373Z,14.15
2022-09-11T08:50:41.485Z,14.30
2022-09-11T08:55:41.552Z,14.41
2022-09-11T09:00:49.652Z,14.57
2022-09-11T09:05:58.574Z,14.69
2022-09-11T09:10:50.246Z,14.87
2022-09-11T09:15:53.861Z,15.01
2022-09-11T09:20:52.601Z,15.03
2022-09-11T09:25:45.245Z,15.12
2022-09-11T09:31:03.931Z,15.24
2022-09-11T09:35:55.580Z,15.39
2022-09-11T09:41:18.783Z,15.58
2022-09-11T09:46:13.376Z,15.73
2022-09-11T09:51:05.310Z,15.72
2022-09-11T09:56:00.302Z,15.80
2022-09-11T10:00:52.106Z,16.17
2022-09-11T10:05:44.929Z,16.31
2022-09-11T10:10:38.906Z,16.55
2022-09-11T10:15:31.173Z,16.51
2022-09-11T10:20:26.942Z,16.50
2022-09-11T10:25:28.290Z,16.52
2022-09-11T10:30:33.036Z,16.52
2022-09-11T10:35:27.890Z,16.61
2022-09-11T10:40:22.874Z,16.66
2022-09-11T10:45:17.330Z,16.63
2022-09-11T10:50:18.142Z,16.61
2022-09-11T10:55:15.674Z,16.59
2022-09-11T11:00:27.204Z,16.65
2022-09-11T11:05:36.140Z,16.79
2022-09-11T11:10:52.568Z,16.86
2022-09-11T11:16:15.455Z,16.86
2022-09-11T11:21:24.737Z,16.88
2022-09-11T11:26:35.324Z,16.99
2022-09-11T11:32:00.818Z,17.14
2022-09-11T11:37:12.597Z,17.10
2022-09-11T11:42:21.999Z,17.13
2022-09-11T11:47:16.677Z,17.34
2022-09-11T11:52:27.195Z,17.82
2022-09-11T11:57:22.414Z,18.31
2022-09-11T12:02:22.085Z,18.49
2022-09-11T12:07:27.614Z,18.54
2022-09-11T12:12:21.361Z,18.73
2022-09-11T12:17:33.254Z,18.90
2022-09-11T12:22:38.354Z,18.97
2022-09-11T12:27:36.346Z,18.96
2022-09-11T12:32:41.869Z,18.87
2022-09-11T12:37:38.709Z,18.80
2022-09-11T12:42:30.221Z,18.73
2022-09-11T12:47:29.342Z,18.61
2022-09-11T12:52:30.613Z,18.53
2022-09-11T12:57:29.217Z,18.49
2022-09-11T13:02:53.199Z,18.54
2022-09-11T13:07:52.230Z,18.61
2022-09-11T13:12:56.273Z,18.85
2022-09-11T13:17:48.277Z,18.97
2022-09-11T13:22:39.850Z,19.12
2022-09-11T13:27:31.550Z,19.29
2022-09-11T13:32:23.404Z,19.43
2022-09-11T13:37:34.633Z,19.47
2022-09-11T13:42:26.354Z,19.55
2022-09-11T13:47:26.750Z,19.62
2022-09-11T13:52:22.109Z,19.82
2022-09-11T13:57:15.430Z,20.01
2022-09-11T14:02:31.406Z,20.11
2022-09-11T14:07:26.307Z,20.23
2022-09-11T14:12:20.381Z,20.47
2022-09-11T14:17:13.869Z,20.57
2022-09-11T14:22:21.666Z,20.65
2022-09-11T14:27:32.842Z,20.77
2022-09-11T14:32:37.049Z,20.90
2022-09-11T14:37:34.580Z,20.85
2022-09-11T14:42:31.671Z,20.73
2022-09-11T14:47:28.246Z,20.73
2022-09-11T14:52:25.713Z,20.75
2022-09-11T14:57:22.929Z,20.78
2022-09-11T15:02:21.400Z,20.65
2022-09-11T15:07:15.097Z,20.51
2022-09-11T15:12:08.745Z,20.41
2022-09-11T15:17:02.506Z,20.38
2022-09-11T15:21:56.673Z,20.38
2022-09-11T15:26:48.343Z,20.36
2022-09-11T15:31:39.930Z,20.35
2022-09-11T15:36:32.697Z,20.38
2022-09-11T15:41:25.427Z,20.43
2022-09-11T15:46:19.502Z,20.49
2022-09-11T15:51:15.050Z,20.50
2022-09-11T15:56:12.289Z,20.44
2022-09-11T16:01:04.105Z,20.34
2022-09-11T16:05:57.122Z,20.22
2022-09-11T16:10:56.910Z,20.18
2022-09-11T16:15:51.289Z,20.11
2022-09-11T16:20:49.867Z,20.05
2022-09-11T16:25:42.381Z,19.97
2022-09-11T16:30:49.553Z,19.96
2022-09-11T16:35:42.828Z,19.90
2022-09-11T16:40:44.818Z,19.88
2022-09-11T16:45:38.674Z,19.87
2022-09-11T16:50:36.809Z,19.83
2022-09-11T16:55:28.593Z,19.75
2022-09-11T17:00:26.699Z,19.71
2022-09-11T17:05:18.223Z,19.62
2022-09-11T17:10:16.735Z,19.60
2022-09-11T17:15:08.886Z,19.55
2022-09-11T17:20:00.763Z,19.55
2022-09-11T17:24:52.409Z,19.50
2022-09-11T17:29:44.954Z,19.45
2022-09-11T17:34:37.257Z,19.41
2022-09-11T17:39:28.989Z,19.37
2022-09-11T17:44:24.193Z,19.35
2022-09-11T17:49:16.057Z,19.27
2022-09-11T17:54:07.789Z,19.24
2022-09-11T17:59:00.752Z,19.17
2022-09-11T18:03:57.083Z,19.14
2022-09-11T18:08:48.823Z,19.06
2022-09-11T18:13:43.095Z,19.05
2022-09-11T18:18:35.051Z,19.02
2022-09-11T18:23:26.786Z,18.98
2022-09-11T18:28:20.083Z,18.95
2022-09-11T18:33:12.186Z,18.91
2022-09-11T18:38:05.008Z,18.86
2022-09-11T18:42:56.719Z,18.79
2022-09-11T18:47:52.796Z,18.74
2022-09-11T18:52:44.581Z,18.65
2022-09-11T18:57:41.185Z,18.56
2022-09-11T19:02:34.159Z,18.52
2022-09-11T19:07:25.775Z,18.43
2022-09-11T19:12:17.477Z,18.30
2022-09-11T19:17:09.155Z,18.16
2022-09-11T19:22:00.812Z,18.04
2022-09-11T19:26:52.870Z,17.93
2022-09-11T19:31:44.691Z,17.83
2022-09-11T19:36:36.656Z,17.78
2022-09-11T19:41:33.367Z,17.75
2022-09-11T19:46:27.411Z,17.72
2022-09-11T19:51:28.657Z,17.67
2022-09-11T19:56:20.348Z,17.66
2022-09-11T20:01:17.373Z,17.70
2022-09-11T20:06:10.434Z,17.70
2022-09-11T20:11:04.641Z,17.69
2022-09-11T20:15:56.362Z,17.70
2022-09-11T20:20:47.996Z,17.72
2022-09-11T20:25:39.894Z,17.74
2022-09-11T20:30:35.645Z,17.74
2022-09-11T20:35:27.368Z,17.70
2022-09-11T20:40:19.739Z,17.73
2022-09-11T20:45:11.614Z,17.73
2022-09-11T20:50:04.829Z,17.71
2022-09-11T20:54:56.644Z,17.72
2022-09-11T20:59:49.931Z,17.71
2022-09-11T21:04:41.867Z,17.70
2022-09-11T21:09:33.540Z,17.70
2022-09-11T21:14:25.302Z,17.70
2022-09-11T21:19:17.007Z,17.70
2022-09-11T21:24:12.540Z,17.71
2022-09-11T21:29:07.010Z,17.72
2022-09-11T21:33:59.149Z,17.70
2022-09-11T21:38:50.857Z,17.69
2022-09-11T21:43:42.654Z,17.66
2022-09-11T21:48:39.905Z,17.64
2022-09-11T21:53:31.597Z,17.61
2022-09-11T21:58:23.290Z,17.62
2022-09-11T22:03:16.764Z,17.58
2022-09-11T22:08:09.081Z,17.56
2022-09-11T22:13:00.898Z,17.56
2022-09-11T22:17:53.796Z,17.56
2022-09-11T22:22:46.278Z,17.53
2022-09-11T22:27:37.918Z,17.52
2022-09-11T22:32:30.821Z,17.51
2022-09-11T22:37:22.433Z,17.48
2022-09-11T22:42:14.070Z,17.47
2022-09-11T22:47:05.787Z,17.44
2022-09-11T22:51:57.490Z,17.41
2022-09-11T22:56:49.274Z,17.38
2022-09-11T23:01:40.949Z,17.38
2022-09-11T23:06:51.334Z,17.35
2022-09-11T23:11:44.556Z,17.31
2022-09-11T23:16:36.276Z,17.23
2022-09-11T23:21:29.633Z,17.21
2022-09-11T23:26:21.657Z,17.21
2022-09-11T23:31:22.422Z,17.15
2022-09-11T23:36:17.168Z,17.09
2022-09-11T23:41:08.923Z,16.99
2022-09-11T23:46:00.729Z,16.94
2022-09-11T23:50:52.427Z,16.86
2022-09-11T23:55:47.869Z,16.77
